createdAt,value
2022-09-26T00:01:37.695Z,100.00
2022-09-26T00:04:10.321Z,100.00
2022-09-26T00:06:37.493Z,100.00
2022-09-26T00:09:04.922Z,100.00
2022-09-26T00:11:34.256Z,100.00
2022-09-26T00:14:07.647Z,100.00
2022-09-26T00:16:35.342Z,100.00
2022-09-26T00:19:03.406Z,100.00
2022-09-26T00:21:31.366Z,100.00
2022-09-26T00:24:00.632Z,100.00
2022-09-26T00:26:30.253Z,100.00
2022-09-26T00:28:58.205Z,100.00
2022-09-26T00:31:28.982Z,100.00
2022-09-26T00:33:57.378Z,100.00
2022-09-26T00:36:36.902Z,100.00
2022-09-26T00:39:06.659Z,100.00
2022-09-26T00:41:33.857Z,100.00
2022-09-26T00:44:01.238Z,100.00
2022-09-26T00:46:48.065Z,100.00
2022-09-26T00:49:42.149Z,100.00
2022-09-26T00:52:23.756Z,100.00
2022-09-26T00:54:55.322Z,100.00
2022-09-26T00:57:30.164Z,100.00
2022-09-26T01:00:01.727Z,100.00
2022-09-26T01:02:29.444Z,100.00
2022-09-26T01:04:58.663Z,100.00
2022-09-26T01:07:28.571Z,100.00
2022-09-26T01:09:57.507Z,100.00
2022-09-26T01:12:25.127Z,100.00
2022-09-26T01:14:54.510Z,100.00
2022-09-26T01:17:24.637Z,100.00
2022-09-26T01:20:00.551Z,100.00
2022-09-26T01:22:53.679Z,100.00
2022-09-26T01:25:56.154Z,100.00
2022-09-26T01:28:48.328Z,100.00
2022-09-26T01:31:36.455Z,100.00
2022-09-26T01:34:08.264Z,100.00
2022-09-26T01:36:49.707Z,100.00
2022-09-26T01:39:19.919Z,100.00
2022-09-26T01:41:53.736Z,100.00
2022-09-26T01:44:38.858Z,100.00
2022-09-26T01:47:14.223Z,100.00
2022-09-26T01:50:17.168Z,100.00
2022-09-26T01:53:03.528Z,100.00
2022-09-26T01:55:37.874Z,100.00
2022-09-26T01:58:21.376Z,100.00
2022-09-26T02:00:49.998Z,100.00
2022-09-26T02:03:27.371Z,100.00
2022-09-26T02:06:06.293Z,100.00
2022-09-26T02:08:41.787Z,100.00
2022-09-26T02:11:13.527Z,100.00
2022-09-26T02:14:03.797Z,100.00
2022-09-26T02:16:44.544Z,100.00
2022-09-26T02:19:36.999Z,100.00
2022-09-26T02:22:04.230Z,100.00
2022-09-26T02:24:31.474Z,100.00
2022-09-26T02:26:59.027Z,100.00
2022-09-26T02:29:26.408Z,100.00
2022-09-26T02:32:03.166Z,100.00
2022-09-26T02:34:30.649Z,100.00
2022-09-26T02:36:59.353Z,100.00
2022-09-26T02:39:30.031Z,100.00
2022-09-26T02:42:24.435Z,100.00
2022-09-26T02:45:11.944Z,100.00
2022-09-26T02:48:14.310Z,100.00
2022-09-26T02:51:02.875Z,100.00
2022-09-26T02:53:57.619Z,100.00
2022-09-26T02:56:55.334Z,100.00
2022-09-26T02:59:35.502Z,100.00
2022-09-26T03:02:22.976Z,100.00
2022-09-26T03:05:13.416Z,100.00
2022-09-26T03:07:56.686Z,100.00
2022-09-26T03:10:28.453Z,100.00
2022-09-26T03:13:01.692Z,100.00
2022-09-26T03:15:31.648Z,100.00
2022-09-26T03:18:00.356Z,100.00
2022-09-26T03:20:27.790Z,100.00
2022-09-26T03:22:56.198Z,100.00
2022-09-26T03:25:26.031Z,100.00
2022-09-26T03:28:05.630Z,100.00
2022-09-26T03:30:33.504Z,100.00
2022-09-26T03:33:19.101Z,100.00
2022-09-26T03:35:47.046Z,100.00
2022-09-26T03:38:14.858Z,100.00
2022-09-26T03:40:48.713Z,100.00
2022-09-26T03:43:50.857Z,100.00
2022-09-26T03:46:18.602Z,100.00
2022-09-26T03:48:45.862Z,100.00
2022-09-26T03:51:14.480Z,100.00
2022-09-26T03:53:43.800Z,100.00
2022-09-26T03:56:17.836Z,100.00
2022-09-26T03:58:45.507Z,100.00
2022-09-26T04:01:15.234Z,100.00
2022-09-26T04:03:49.285Z,100.00
2022-09-26T04:06:20.199Z,100.00
2022-09-26T04:08:49.885Z,100.00
2022-09-26T04:11:20.652Z,100.00
2022-09-26T04:13:52.315Z,100.00
2022-09-26T04:16:23.726Z,100.00
2022-09-26T04:18:57.441Z,100.00
2022-09-26T04:21:29.650Z,100.00
2022-09-26T04:23:59.299Z,100.00
2022-09-26T04:26:26.673Z,100.00
2022-09-26T04:28:56.501Z,100.00
2022-09-26T04:31:35.636Z,100.00
2022-09-26T04:34:11.186Z,100.00
2022-09-26T04:36:38.928Z,100.00
2022-09-26T04:39:06.589Z,100.00
2022-09-26T04:41:34.678Z,100.00
2022-09-26T04:44:02.035Z,100.00
2022-09-26T04:46:31.546Z,100.00
2022-09-26T04:49:01.496Z,100.00
2022-09-26T04:51:31.476Z,100.00
2022-09-26T04:53:59.299Z,100.00
2022-09-26T04:56:29.724Z,100.00
2022-09-26T04:58:58.941Z,100.00
2022-09-26T05:01:32.732Z,100.00
2022-09-26T05:04:10.014Z,100.00
2022-09-26T05:06:37.501Z,100.00
2022-09-26T05:09:06.235Z,100.00
2022-09-26T05:11:53.723Z,100.00
2022-09-26T05:14:21.075Z,100.00
2022-09-26T05:16:49.570Z,100.00
2022-09-26T05:19:17.757Z,100.00
2022-09-26T05:22:10.713Z,100.00
2022-09-26T05:24:56.586Z,100.00
2022-09-26T05:27:24.237Z,100.00
2022-09-26T05:29:56.977Z,100.00
2022-09-26T05:32:25.106Z,100.00
2022-09-26T05:34:52.485Z,100.00
2022-09-26T05:37:21.847Z,100.00
2022-09-26T05:40:08.658Z,100.00
2022-09-26T05:42:40.155Z,100.00
2022-09-26T05:45:08.759Z,100.00
2022-09-26T05:47:36.593Z,100.00
2022-09-26T05:50:16.042Z,100.00
2022-09-26T05:52:43.237Z,100.00
2022-09-26T05:55:17.131Z,100.00
2022-09-26T05:58:02.489Z,100.00
2022-09-26T06:00:55.346Z,100.00
2022-09-26T06:03:22.980Z,100.00
2022-09-26T06:06:07.715Z,100.00
2022-09-26T06:08:36.714Z,100.00
2022-09-26T06:11:30.502Z,100.00
2022-09-26T06:14:00.437Z,100.00
2022-09-26T06:16:28.871Z,100.00
2022-09-26T06:18:56.606Z,100.00
2022-09-26T06:21:24.348Z,100.00
2022-09-26T06:24:13.085Z,100.00
2022-09-26T06:26:41.470Z,100.00
2022-09-26T06:29:10.343Z,100.00
2022-09-26T06:31:40.564Z,100.00
2022-09-26T06:34:12.928Z,100.00
2022-09-26T06:37:06.179Z,100.00
2022-09-26T06:39:37.003Z,100.00
2022-09-26T06:42:07.248Z,100.00
2022-09-26T06:44:52.740Z,100.00
2022-09-26T06:47:25.939Z,100.00
2022-09-26T06:50:13.267Z,100.00
2022-09-26T06:52:44.097Z,100.00
2022-09-26T06:55:12.438Z,100.00
2022-09-26T06:57:42.473Z,100.00
2022-09-26T07:00:12.790Z,100.00
2022-09-26T07:03:03.141Z,100.00
2022-09-26T07:05:48.745Z,100.00
2022-09-26T07:08:16.897Z,100.00
2022-09-26T07:10:44.301Z,99.98
2022-09-26T07:13:24.463Z,98.61
2022-09-26T07:15:51.858Z,97.99
2022-09-26T07:18:47.973Z,98.37
2022-09-26T07:21:45.027Z,96.73
2022-09-26T07:24:34.990Z,94.53
2022-09-26T07:27:03.351Z,93.92
2022-09-26T07:29:30.630Z,94.45
2022-09-26T07:31:58.934Z,93.47
2022-09-26T07:34:43.851Z,92.42
2022-09-26T07:37:12.865Z,91.80
2022-09-26T07:39:40.166Z,88.45
2022-09-26T07:42:08.606Z,89.23
2022-09-26T07:47:42.288Z,87.78
2022-09-26T07:50:29.322Z,88.35
2022-09-26T07:53:20.108Z,87.28
2022-09-26T07:56:13.100Z,86.21
2022-09-26T07:59:00.704Z,84.79
2022-09-26T08:01:52.677Z,83.29
2022-09-26T08:04:49.667Z,81.81
2022-09-26T08:07:18.145Z,81.60
2022-09-26T08:10:02.969Z,79.47
2022-09-26T08:13:02.155Z,79.19
2022-09-26T08:15:43.332Z,79.22
2022-09-26T08:18:15.888Z,78.50
2022-09-26T08:20:47.199Z,77.74
2022-09-26T08:23:16.267Z,77.67
2022-09-26T08:25:45.210Z,76.25
2022-09-26T08:28:23.995Z,74.32
2022-09-26T08:30:52.497Z,73.77
2022-09-26T08:33:21.668Z,73.48
2022-09-26T08:35:49.919Z,76.36
2022-09-26T08:38:49.862Z,75.84
2022-09-26T08:42:33.851Z,73.61
2022-09-26T08:45:56.778Z,71.89
2022-09-26T08:49:21.456Z,72.20
2022-09-26T08:51:52.428Z,70.56
2022-09-26T08:54:42.579Z,70.37
2022-09-26T08:58:04.360Z,69.79
2022-09-26T09:00:38.095Z,69.37
2022-09-26T09:03:25.742Z,68.78
2022-09-26T09:06:06.067Z,67.61
2022-09-26T09:08:39.911Z,69.00
2022-09-26T09:11:57.793Z,68.13
2022-09-26T09:14:57.964Z,67.69
2022-09-26T09:17:56.391Z,69.65
2022-09-26T09:21:08.823Z,71.23
2022-09-26T09:24:02.838Z,68.59
2022-09-26T09:29:49.465Z,70.84
2022-09-26T09:33:07.170Z,72.17
2022-09-26T09:35:48.963Z,70.78
2022-09-26T09:38:45.808Z,68.69
2022-09-26T09:41:50.827Z,67.20
2022-09-26T09:44:52.446Z,67.62
2022-09-26T09:47:20.776Z,66.50
2022-09-26T09:49:50.047Z,67.96
2022-09-26T09:52:29.883Z,66.69
2022-09-26T09:55:31.352Z,68.39
2022-09-26T09:58:14.005Z,66.76
2022-09-26T10:00:53.778Z,65.05
2022-09-26T10:03:47.783Z,65.89
2022-09-26T10:06:45.244Z,67.78
2022-09-26T10:09:35.745Z,70.83
2022-09-26T10:12:30.581Z,71.00
2022-09-26T10:15:22.320Z,73.89
2022-09-26T10:18:25.254Z,70.79
2022-09-26T10:21:17.828Z,71.90
2022-09-26T10:23:51.481Z,72.80
2022-09-26T10:26:37.776Z,70.64
2022-09-26T10:29:24.577Z,71.91
2022-09-26T10:31:57.274Z,71.44
2022-09-26T10:34:34.208Z,68.05
2022-09-26T10:37:29.045Z,65.81
2022-09-26T10:40:45.889Z,67.40
2022-09-26T10:43:25.428Z,65.72
2022-09-26T10:46:10.936Z,67.98
2022-09-26T10:49:02.160Z,66.34
2022-09-26T10:51:55.501Z,65.12
2022-09-26T10:54:32.850Z,64.68
2022-09-26T10:57:00.853Z,62.79
2022-09-26T10:59:33.100Z,61.53
2022-09-26T11:02:02.454Z,61.93
2022-09-26T11:04:51.814Z,62.35
2022-09-26T11:07:43.875Z,62.50
2022-09-26T11:10:46.615Z,63.48
2022-09-26T11:13:32.191Z,63.82
2022-09-26T11:16:13.500Z,64.19
2022-09-26T11:18:58.959Z,60.72
2022-09-26T11:21:32.875Z,61.84
2022-09-26T11:24:15.305Z,61.30
2022-09-26T11:27:05.497Z,61.15
2022-09-26T11:29:52.138Z,58.97
2022-09-26T11:32:33.512Z,60.24
2022-09-26T11:35:54.443Z,61.10
2022-09-26T11:38:24.598Z,59.06
2022-09-26T11:40:57.839Z,60.55
2022-09-26T11:43:38.263Z,61.09
2022-09-26T11:46:41.045Z,58.98
2022-09-26T11:49:37.630Z,60.56
2022-09-26T11:52:49.692Z,58.91
2022-09-26T11:55:30.923Z,59.99
2022-09-26T11:58:16.151Z,57.99
2022-09-26T12:01:03.481Z,60.07
2022-09-26T12:04:15.770Z,55.79
2022-09-26T12:07:07.396Z,53.40
2022-09-26T12:09:48.941Z,55.37
2022-09-26T12:12:40.415Z,56.53
2022-09-26T12:15:38.815Z,56.62
2022-09-26T12:18:06.066Z,57.95
2022-09-26T12:20:56.922Z,59.30
2022-09-26T12:23:58.795Z,59.70
2022-09-26T12:26:46.470Z,60.06
2022-09-26T12:29:41.247Z,59.71
2022-09-26T12:32:29.775Z,60.28
2022-09-26T12:35:04.515Z,58.44
2022-09-26T12:37:41.451Z,57.91
2022-09-26T12:40:51.057Z,61.61
2022-09-26T12:44:15.301Z,55.80
2022-09-26T12:47:03.654Z,54.90
2022-09-26T12:49:36.829Z,55.53
2022-09-26T12:52:27.727Z,57.06
2022-09-26T12:55:04.181Z,60.00
2022-09-26T12:57:46.184Z,61.54
2022-09-26T13:00:18.568Z,54.88
2022-09-26T13:03:23.838Z,56.83
2022-09-26T13:05:50.963Z,60.08
2022-09-26T13:08:41.162Z,58.23
2022-09-26T13:11:32.704Z,58.60
2022-09-26T13:14:10.578Z,57.39
2022-09-26T13:17:06.068Z,58.52
2022-09-26T13:19:37.670Z,59.73
2022-09-26T13:22:21.991Z,58.52
2022-09-26T13:24:54.950Z,57.61
2022-09-26T13:27:28.663Z,54.75
2022-09-26T13:30:04.318Z,58.12
2022-09-26T13:32:53.812Z,58.38
2022-09-26T13:35:29.381Z,58.78
2022-09-26T13:38:17.903Z,58.87
2022-09-26T13:41:23.986Z,58.52
2022-09-26T13:44:28.463Z,57.60
2022-09-26T13:47:16.908Z,57.56
2022-09-26T13:49:51.217Z,59.34
2022-09-26T13:52:29.157Z,60.33
2022-09-26T13:55:03.232Z,60.08
2022-09-26T13:57:49.988Z,56.19
2022-09-26T14:00:24.098Z,55.83
2022-09-26T14:03:09.434Z,56.36
2022-09-26T14:05:43.130Z,56.71
2022-09-26T14:08:44.483Z,56.62
2022-09-26T14:11:45.755Z,54.42
2022-09-26T14:14:19.154Z,58.23
2022-09-26T14:16:51.742Z,55.79
2022-09-26T14:19:37.466Z,56.95
2022-09-26T14:22:20.449Z,55.02
2022-09-26T14:24:49.019Z,55.32
2022-09-26T14:27:16.056Z,54.02
2022-09-26T14:29:58.998Z,56.12
2022-09-26T14:32:30.391Z,53.87
2022-09-26T14:35:00.233Z,55.28
2022-09-26T14:37:49.234Z,54.72
2022-09-26T14:40:24.412Z,54.92
2022-09-26T14:43:03.973Z,52.42
2022-09-26T14:45:30.990Z,54.55
2022-09-26T14:48:14.845Z,53.35
2022-09-26T14:50:50.327Z,51.32
2022-09-26T14:53:20.377Z,48.97
2022-09-26T14:55:58.347Z,47.08
2022-09-26T14:58:34.130Z,44.94
2022-09-26T15:01:04.995Z,43.31
2022-09-26T15:03:34.548Z,43.47
2022-09-26T15:06:04.405Z,41.35
2022-09-26T15:08:39.303Z,41.60
2022-09-26T15:11:07.161Z,42.22
2022-09-26T15:13:38.489Z,40.82
2022-09-26T15:16:37.583Z,41.46
2022-09-26T15:19:12.080Z,45.83
2022-09-26T15:21:43.132Z,49.54
2022-09-26T15:24:32.849Z,53.42
2022-09-26T15:27:07.847Z,55.52
2022-09-26T15:29:37.020Z,57.37
2022-09-26T15:32:06.821Z,57.10
2022-09-26T15:34:38.925Z,58.50
2022-09-26T15:37:17.523Z,59.35
2022-09-26T15:39:44.835Z,59.87
2022-09-26T15:42:33.269Z,61.04
2022-09-26T15:45:01.843Z,63.07
2022-09-26T15:47:28.879Z,63.38
2022-09-26T15:50:10.168Z,63.02
2022-09-26T15:52:52.638Z,64.05
2022-09-26T15:55:23.870Z,65.26
2022-09-26T15:57:53.792Z,64.88
2022-09-26T16:00:21.026Z,65.99
2022-09-26T16:02:48.687Z,66.81
2022-09-26T16:05:16.602Z,67.46
2022-09-26T16:07:50.627Z,67.97
2022-09-26T16:10:28.349Z,68.02
2022-09-26T16:13:00.565Z,68.71
2022-09-26T16:15:30.226Z,68.20
2022-09-26T16:17:58.429Z,68.89
2022-09-26T16:20:29.377Z,69.31
2022-09-26T16:23:05.567Z,70.32
2022-09-26T16:25:53.436Z,70.88
2022-09-26T16:28:39.412Z,71.26
2022-09-26T16:31:07.610Z,71.48
2022-09-26T16:33:39.106Z,72.57
2022-09-26T16:36:23.536Z,71.82
2022-09-26T16:38:55.280Z,72.48
2022-09-26T16:44:34.540Z,73.90
2022-09-26T16:47:05.210Z,74.61
2022-09-26T16:49:32.355Z,75.19
2022-09-26T16:52:28.894Z,76.18
2022-09-26T16:54:58.056Z,76.83
2022-09-26T16:57:27.865Z,77.95
2022-09-26T17:00:18.801Z,78.46
2022-09-26T17:02:46.108Z,78.98
2022-09-26T17:05:19.325Z,80.02
2022-09-26T17:07:48.586Z,80.93
2022-09-26T17:10:18.206Z,81.40
2022-09-26T17:12:50.347Z,81.55
2022-09-26T17:15:28.611Z,81.84
2022-09-26T17:17:56.978Z,82.41
2022-09-26T17:20:24.515Z,82.52
2022-09-26T17:22:51.850Z,82.35
2022-09-26T17:25:19.198Z,82.87
2022-09-26T17:27:51.677Z,83.19
2022-09-26T17:30:19.593Z,83.58
2022-09-26T17:32:50.914Z,83.60
2022-09-26T17:35:31.906Z,83.45
2022-09-26T17:38:00.267Z,83.78
2022-09-26T17:40:30.748Z,83.99
2022-09-26T17:43:01.332Z,83.20
2022-09-26T17:45:43.758Z,83.23
2022-09-26T17:48:33.163Z,82.78
2022-09-26T17:51:02.125Z,82.80
2022-09-26T17:53:46.143Z,82.76
2022-09-26T17:56:16.107Z,81.70
2022-09-26T17:58:44.561Z,84.00
2022-09-26T18:01:34.447Z,85.09
2022-09-26T18:04:06.301Z,84.37
2022-09-26T18:06:33.925Z,82.97
2022-09-26T18:09:07.291Z,79.13
2022-09-26T18:11:34.895Z,79.39
2022-09-26T18:14:04.360Z,78.05
2022-09-26T18:16:31.488Z,78.36
2022-09-26T18:19:01.101Z,78.31
2022-09-26T18:21:31.802Z,78.21
2022-09-26T18:24:02.117Z,76.61
2022-09-26T18:26:32.293Z,77.19
2022-09-26T18:29:05.373Z,78.70
2022-09-26T18:31:36.598Z,78.89
2022-09-26T18:34:03.839Z,78.50
2022-09-26T18:36:35.255Z,78.27
2022-09-26T18:39:02.426Z,79.20
2022-09-26T18:41:29.811Z,78.10
2022-09-26T18:44:00.461Z,77.89
2022-09-26T18:46:29.341Z,77.37
2022-09-26T18:49:06.050Z,76.91
2022-09-26T18:51:33.554Z,75.98
2022-09-26T18:54:01.692Z,75.11
2022-09-26T18:56:47.116Z,75.55
2022-09-26T18:59:14.763Z,75.05
2022-09-26T19:01:43.155Z,74.00
2022-09-26T19:04:20.124Z,73.93
2022-09-26T19:06:58.868Z,73.70
2022-09-26T19:09:30.621Z,73.48
2022-09-26T19:11:57.798Z,74.72
2022-09-26T19:14:27.654Z,74.81
2022-09-26T19:16:55.432Z,74.04
2022-09-26T19:19:22.968Z,74.98
2022-09-26T19:21:53.144Z,75.90
2022-09-26T19:24:26.993Z,75.43
2022-09-26T19:27:01.841Z,75.32
2022-09-26T19:29:42.406Z,74.21
2022-09-26T19:32:19.102Z,73.85
2022-09-26T19:34:53.903Z,74.91
2022-09-26T19:37:21.132Z,73.93
2022-09-26T19:39:48.387Z,74.16
2022-09-26T19:42:15.727Z,74.47
2022-09-26T19:44:42.931Z,76.75
2022-09-26T19:47:15.860Z,75.12
2022-09-26T19:49:43.121Z,74.68
2022-09-26T19:52:16.130Z,73.67
2022-09-26T19:54:45.269Z,74.40
2022-09-26T19:57:22.541Z,75.64
2022-09-26T19:59:50.434Z,76.98
2022-09-26T20:02:20.822Z,75.68
2022-09-26T20:04:48.790Z,75.84
2022-09-26T20:07:18.677Z,74.34
2022-09-26T20:09:46.655Z,75.02
2022-09-26T20:12:13.949Z,76.35
2022-09-26T20:14:41.187Z,74.20
2022-09-26T20:17:23.173Z,74.90
2022-09-26T20:19:58.446Z,75.76
2022-09-26T20:22:26.435Z,76.90
2022-09-26T20:24:57.374Z,75.72
2022-09-26T20:27:27.918Z,75.79
2022-09-26T20:30:14.690Z,77.41
2022-09-26T20:32:42.282Z,77.29
2022-09-26T20:35:14.736Z,76.74
2022-09-26T20:37:42.778Z,75.96
2022-09-26T20:40:19.392Z,76.08
2022-09-26T20:42:50.705Z,77.30
2022-09-26T20:45:22.295Z,77.10
2022-09-26T20:47:49.441Z,77.76
2022-09-26T20:50:18.879Z,78.18
2022-09-26T20:52:46.158Z,78.54
2022-09-26T20:55:18.585Z,80.38
2022-09-26T20:57:46.114Z,80.89
2022-09-26T21:00:18.994Z,82.00
2022-09-26T21:02:51.117Z,82.33
2022-09-26T21:05:22.743Z,81.72
2022-09-26T21:07:51.464Z,82.31
2022-09-26T21:10:27.466Z,82.18
2022-09-26T21:12:55.590Z,79.74
2022-09-26T21:15:24.643Z,79.44
2022-09-26T21:17:53.016Z,78.16
2022-09-26T21:20:29.593Z,77.75
2022-09-26T21:23:10.178Z,77.38
2022-09-26T21:25:37.282Z,77.45
2022-09-26T21:28:27.829Z,78.17
2022-09-26T21:30:57.893Z,79.53
2022-09-26T21:33:25.117Z,81.46
2022-09-26T21:35:52.711Z,80.98
2022-09-26T21:38:20.554Z,81.08
2022-09-26T21:40:53.292Z,81.35
2022-09-26T21:43:24.430Z,81.09
2022-09-26T21:45:51.665Z,80.17
2022-09-26T21:48:18.956Z,78.34
2022-09-26T21:50:57.410Z,77.92
2022-09-26T21:53:32.015Z,78.47
2022-09-26T21:56:07.305Z,78.07
2022-09-26T21:58:38.123Z,78.47
2022-09-26T22:01:05.409Z,78.61
2022-09-26T22:03:32.923Z,79.37
2022-09-26T22:06:03.686Z,81.10
2022-09-26T22:08:34.143Z,79.84
2022-09-26T22:11:03.138Z,79.62
2022-09-26T22:13:30.533Z,79.18
2022-09-26T22:16:13.102Z,82.49
2022-09-26T22:18:41.230Z,81.41
2022-09-26T22:21:10.027Z,81.90
2022-09-26T22:23:38.124Z,82.79
2022-09-26T22:26:05.884Z,83.93
2022-09-26T22:28:33.031Z,83.90
2022-09-26T22:31:01.864Z,82.91
2022-09-26T22:33:29.515Z,80.68
2022-09-26T22:35:57.440Z,79.91
2022-09-26T22:38:24.754Z,79.38
2022-09-26T22:40:59.830Z,78.58
2022-09-26T22:43:27.732Z,79.32
2022-09-26T22:46:01.562Z,77.61
2022-09-26T22:48:33.495Z,78.81
2022-09-26T22:51:00.909Z,78.43
2022-09-26T22:53:31.111Z,79.62
2022-09-26T22:56:04.828Z,80.78
2022-09-26T22:58:35.290Z,80.63
2022-09-26T23:01:04.555Z,82.25
2022-09-26T23:03:33.012Z,83.17
2022-09-26T23:06:00.460Z,84.04
2022-09-26T23:08:28.272Z,84.61
2022-09-26T23:10:56.526Z,85.56
2022-09-26T23:13:27.570Z,86.34
2022-09-26T23:15:55.063Z,85.52
2022-09-26T23:18:22.477Z,85.82
2022-09-26T23:20:49.624Z,86.08
2022-09-26T23:23:16.744Z,86.16
2022-09-26T23:25:48.655Z,86.33
2022-09-26T23:28:17.109Z,86.56
2022-09-26T23:30:44.483Z,86.87
2022-09-26T23:33:11.639Z,86.29
2022-09-26T23:35:38.992Z,87.05
2022-09-26T23:38:06.169Z,88.43
2022-09-26T23:40:34.179Z,88.76
2022-09-26T23:43:02.504Z,88.65
2022-09-26T23:45:30.217Z,88.77
2022-09-26T23:47:57.324Z,89.49
2022-09-26T23:50:24.559Z,89.75
2022-09-26T23:52:51.691Z,90.03
2022-09-26T23:55:18.802Z,90.11
2022-09-26T23:57:45.911Z,90.32
